createdAt,value
2023-04-27T00:02:18.916Z,101885.48
2023-04-27T00:04:49.907Z,101885.70
2023-04-27T00:07:20.398Z,101882.38
2023-04-27T00:09:51.210Z,101882.08
2023-04-27T00:12:22.009Z,101882.38
2023-04-27T00:14:53.131Z,101886.13
2023-04-27T00:17:23.576Z,101886.29
2023-04-27T00:19:54.372Z,101888.30
2023-04-27T00:22:25.136Z,101890.08
2023-04-27T00:24:55.933Z,101889.81
2023-04-27T00:27:26.710Z,101890.66
2023-04-27T00:29:57.529Z,101890.78
2023-04-27T00:32:28.392Z,101892.07
2023-04-27T00:34:59.099Z,101896.53
2023-04-27T00:37:29.537Z,101898.60
2023-04-27T00:40:00.416Z,101899.61
2023-04-27T00:42:31.148Z,101900.05
2023-04-27T00:45:01.999Z,101899.04
2023-04-27T00:47:32.650Z,101900.60
2023-04-27T00:50:03.313Z,101901.01
2023-04-27T00:52:34.096Z,101903.64
2023-04-27T00:55:04.949Z,101899.04
2023-04-27T00:57:35.732Z,101902.47
2023-04-27T01:00:06.278Z,101906.57
2023-04-27T01:02:36.869Z,101912.62
2023-04-27T01:05:07.545Z,101914.15
2023-04-27T01:07:38.351Z,101914.23
2023-04-27T01:10:09.284Z,101916.37
2023-04-27T01:12:39.976Z,101914.65
2023-04-27T01:15:10.818Z,101914.66
2023-04-27T01:17:41.681Z,101912.12
2023-04-27T01:20:11.909Z,101913.16
2023-04-27T01:22:42.327Z,101912.34
2023-04-27T01:25:13.174Z,101914.72
2023-04-27T01:27:43.968Z,101915.15
2023-04-27T01:30:14.826Z,101914.69
2023-04-27T01:32:45.607Z,101914.32
2023-04-27T01:35:16.482Z,101911.07
2023-04-27T01:37:46.932Z,101912.30
2023-04-27T01:40:17.793Z,101912.21
2023-04-27T01:42:48.615Z,101914.30
2023-04-27T01:45:18.660Z,101912.02
2023-04-27T01:47:48.826Z,101908.58
2023-04-27T01:50:19.167Z,101907.05
2023-04-27T01:52:49.338Z,101909.28
2023-04-27T01:55:19.222Z,101909.96
2023-04-27T01:57:50.195Z,101910.49
2023-04-27T02:00:20.945Z,101913.30
2023-04-27T02:02:52.009Z,101914.97
2023-04-27T02:05:22.696Z,101916.43
2023-04-27T02:07:53.513Z,101919.97
2023-04-27T02:10:24.403Z,101923.79
2023-04-27T02:12:54.945Z,101925.95
2023-04-27T02:15:24.936Z,101926.10
2023-04-27T02:17:55.010Z,101927.46
2023-04-27T02:20:25.762Z,101928.56
2023-04-27T02:22:56.276Z,101927.28
2023-04-27T02:25:26.305Z,101929.08
2023-04-27T02:27:56.286Z,101928.73
2023-04-27T02:30:27.171Z,101926.85
2023-04-27T02:32:58.011Z,101926.95
2023-04-27T02:35:28.862Z,101931.09
2023-04-27T02:37:59.716Z,101935.60
2023-04-27T02:40:30.595Z,101935.97
2023-04-27T02:43:01.547Z,101933.19
2023-04-27T02:45:32.352Z,101931.18
2023-04-27T02:48:03.233Z,101927.51
2023-04-27T02:50:34.066Z,101925.75
2023-04-27T02:53:04.908Z,101922.55
2023-04-27T02:55:35.465Z,101923.15
2023-04-27T02:58:05.501Z,101923.10
2023-04-27T03:00:35.506Z,101918.13
2023-04-27T03:03:06.449Z,101916.66
2023-04-27T03:05:36.744Z,101920.20
2023-04-27T03:08:06.995Z,101917.57
2023-04-27T03:10:36.941Z,101914.42
2023-04-27T03:13:07.811Z,101910.13
2023-04-27T03:15:38.718Z,101904.91
2023-04-27T03:18:09.552Z,101909.63
2023-04-27T03:20:40.429Z,101911.29
2023-04-27T03:23:10.942Z,101915.55
2023-04-27T03:25:41.570Z,101914.30
2023-04-27T03:28:11.583Z,101910.61
2023-04-27T03:30:42.135Z,101908.84
2023-04-27T03:33:12.169Z,101909.50
2023-04-27T03:35:42.437Z,101906.30
2023-04-27T03:38:12.457Z,101908.96
2023-04-27T03:40:42.515Z,101908.59
2023-04-27T03:43:13.035Z,101908.73
2023-04-27T03:45:44.006Z,101910.72
2023-04-27T03:48:14.496Z,101907.16
2023-04-27T03:50:44.565Z,101912.41
2023-04-27T03:53:14.623Z,101919.86
2023-04-27T03:55:45.183Z,101918.49
2023-04-27T03:58:15.844Z,101917.56
2023-04-27T04:00:45.886Z,101919.85
2023-04-27T04:03:16.954Z,101918.85
2023-04-27T04:05:47.097Z,101921.93
2023-04-27T04:08:17.147Z,101921.32
2023-04-27T04:10:47.198Z,101921.84
2023-04-27T04:13:17.280Z,101918.79
2023-04-27T04:15:47.374Z,101921.69
2023-04-27T04:18:18.179Z,101921.50
2023-04-27T04:20:49.095Z,101926.47
2023-04-27T04:23:20.004Z,101928.68
2023-04-27T04:25:50.587Z,101927.40
2023-04-27T04:28:20.625Z,101927.67
2023-04-27T04:30:50.718Z,101933.22
2023-04-27T04:33:21.597Z,101928.41
2023-04-27T04:35:52.536Z,101928.43
2023-04-27T04:38:23.402Z,101926.24
2023-04-27T04:40:53.970Z,101926.48
2023-04-27T04:43:24.004Z,101921.74
2023-04-27T04:45:54.077Z,101925.41
2023-04-27T04:48:24.958Z,101928.18
2023-04-27T04:50:55.875Z,101930.76
2023-04-27T04:53:26.413Z,101931.05
2023-04-27T04:55:56.485Z,101935.09
2023-04-27T04:58:26.635Z,101934.89
2023-04-27T05:00:57.469Z,101937.02
2023-04-27T05:03:28.433Z,101939.26
2023-04-27T05:05:58.615Z,101942.78
2023-04-27T05:08:28.653Z,101940.76
2023-04-27T05:10:59.603Z,101945.43
2023-04-27T05:13:30.431Z,101945.89
2023-04-27T05:16:01.125Z,101952.39
2023-04-27T05:18:30.999Z,101953.11
2023-04-27T05:21:01.076Z,101958.32
2023-04-27T05:23:31.616Z,101958.60
2023-04-27T05:26:02.193Z,101958.60
2023-04-27T05:28:32.424Z,101965.15
2023-04-27T05:31:02.590Z,101962.23
2023-04-27T05:33:32.487Z,101961.85
2023-04-27T05:36:03.357Z,101966.87
2023-04-27T05:38:33.577Z,101973.28
2023-04-27T05:41:03.688Z,101976.99
2023-04-27T05:43:34.464Z,101983.00
2023-04-27T05:46:05.042Z,101986.47
2023-04-27T05:48:35.532Z,101984.35
2023-04-27T05:51:05.761Z,101988.66
2023-04-27T05:53:36.071Z,101987.22
2023-04-27T05:56:06.966Z,101987.84
2023-04-27T05:58:37.743Z,101985.98
2023-04-27T06:01:08.616Z,101987.84
2023-04-27T06:03:38.975Z,101986.50
2023-04-27T06:06:09.374Z,101988.21
2023-04-27T06:08:40.109Z,101986.20
2023-04-27T06:11:10.949Z,101986.19
2023-04-27T06:13:41.014Z,101985.42
2023-04-27T06:16:11.601Z,101985.14
2023-04-27T06:18:42.013Z,101983.24
2023-04-27T06:21:12.238Z,101982.26
2023-04-27T06:23:42.536Z,101981.05
2023-04-27T06:26:13.343Z,101984.69
2023-04-27T06:28:43.779Z,101990.11
2023-04-27T06:31:14.383Z,101991.59
2023-04-27T06:33:44.906Z,101993.53
2023-04-27T06:36:15.582Z,101993.74
2023-04-27T06:38:45.738Z,101992.58
2023-04-27T06:41:16.534Z,101990.45
2023-04-27T06:43:47.082Z,101989.68
2023-04-27T06:46:17.919Z,101990.89
2023-04-27T06:48:48.544Z,101992.11
2023-04-27T06:51:19.044Z,101988.03
2023-04-27T06:53:50.392Z,101986.52
2023-04-27T06:56:20.552Z,101988.56
2023-04-27T06:58:50.934Z,101987.65
2023-04-27T07:01:21.773Z,101987.98
2023-04-27T07:03:52.524Z,101986.48
2023-04-27T07:06:23.397Z,101978.84
2023-04-27T07:08:53.910Z,101975.57
2023-04-27T07:11:24.105Z,101977.91
2023-04-27T07:13:54.828Z,101978.93
2023-04-27T07:16:25.294Z,101980.25
2023-04-27T07:18:55.764Z,101981.63
2023-04-27T07:21:26.521Z,101983.44
2023-04-27T07:23:57.399Z,101982.73
2023-04-27T07:26:27.872Z,101979.64
2023-04-27T07:28:58.073Z,101977.90
2023-04-27T07:31:28.561Z,101976.10
2023-04-27T07:33:59.322Z,101971.57
2023-04-27T07:36:29.668Z,101976.96
2023-04-27T07:39:00.360Z,101973.71
2023-04-27T07:41:31.111Z,101977.18
2023-04-27T07:44:01.831Z,101976.10
2023-04-27T07:46:32.461Z,101973.63
2023-04-27T07:49:03.220Z,101971.57
2023-04-27T07:51:33.440Z,101978.18
2023-04-27T07:54:04.101Z,101977.13
2023-04-27T07:56:34.802Z,101973.68
2023-04-27T07:59:05.461Z,101971.33
2023-04-27T08:01:36.223Z,101963.68
2023-04-27T08:04:07.167Z,101966.60
2023-04-27T08:06:38.072Z,101962.29
2023-04-27T08:09:07.884Z,101958.13
2023-04-27T08:11:38.565Z,101962.98
2023-04-27T08:14:09.179Z,101966.14
2023-04-27T08:16:39.914Z,101966.17
2023-04-27T08:19:10.562Z,101965.04
2023-04-27T08:21:41.184Z,101968.64
2023-04-27T08:24:11.840Z,101971.79
2023-04-27T08:26:42.514Z,101970.42
2023-04-27T08:29:24.194Z,101978.53
2023-04-27T08:31:43.842Z,101980.47
2023-04-27T08:34:14.472Z,101978.74
2023-04-27T08:36:45.082Z,101977.32
2023-04-27T08:39:15.844Z,101979.38
2023-04-27T08:41:46.447Z,101978.72
2023-04-27T08:44:16.912Z,101977.69
2023-04-27T08:46:47.578Z,101974.74
2023-04-27T08:49:18.335Z,101972.41
2023-04-27T08:51:48.732Z,101968.45
2023-04-27T08:54:19.317Z,101966.64
2023-04-27T08:56:49.943Z,101967.59
2023-04-27T08:59:20.512Z,101971.36
2023-04-27T09:01:51.245Z,101972.82
2023-04-27T09:04:22.002Z,101976.61
2023-04-27T09:06:52.291Z,101967.83
2023-04-27T09:09:22.919Z,101970.12
2023-04-27T09:11:53.451Z,101974.22
2023-04-27T09:14:24.039Z,101971.53
2023-04-27T09:16:54.641Z,101972.39
2023-04-27T09:19:24.866Z,101966.73
2023-04-27T09:21:55.429Z,101966.99
2023-04-27T09:24:25.984Z,101962.48
2023-04-27T09:26:57.564Z,101959.73
2023-04-27T09:29:26.902Z,101960.02
2023-04-27T09:31:57.164Z,101957.34
2023-04-27T09:34:27.696Z,101946.51
2023-04-27T09:36:58.187Z,101943.54
2023-04-27T09:39:28.739Z,101944.81
2023-04-27T09:41:59.327Z,101950.60
2023-04-27T09:44:29.869Z,101949.20
2023-04-27T09:47:00.615Z,101948.03
2023-04-27T09:49:30.990Z,101950.38
2023-04-27T09:52:01.556Z,101948.02
2023-04-27T09:54:32.144Z,101953.14
2023-04-27T09:57:02.680Z,101956.97
2023-04-27T09:59:33.308Z,101956.17
2023-04-27T10:02:17.146Z,101954.36
2023-04-27T10:04:34.184Z,101951.88
2023-04-27T10:07:04.543Z,101952.55
2023-04-27T10:09:35.059Z,101956.79
2023-04-27T10:12:05.576Z,101954.96
2023-04-27T10:14:36.098Z,101951.47
2023-04-27T10:17:06.349Z,101948.22
2023-04-27T10:19:36.770Z,101952.11
2023-04-27T10:22:07.308Z,101951.63
2023-04-27T10:24:37.573Z,101950.48
2023-04-27T10:27:07.829Z,101951.91
2023-04-27T10:29:38.324Z,101948.02
2023-04-27T10:32:08.939Z,101945.54
2023-04-27T10:34:39.388Z,101939.91
2023-04-27T10:39:48.702Z,101933.82
2023-04-27T10:42:11.058Z,101928.08
2023-04-27T10:44:41.481Z,101926.58
2023-04-27T10:47:11.984Z,101928.90
2023-04-27T10:49:42.465Z,101924.41
2023-04-27T10:52:12.957Z,101921.42
2023-04-27T10:54:43.427Z,101919.11
2023-04-27T10:57:13.916Z,101918.45
2023-04-27T10:59:44.380Z,101910.67
2023-04-27T11:02:14.908Z,101908.21
2023-04-27T11:04:45.412Z,101907.17
2023-04-27T11:07:15.848Z,101907.69
2023-04-27T11:09:46.310Z,101905.73
2023-04-27T11:12:16.928Z,101899.54
2023-04-27T11:14:47.328Z,101895.29
2023-04-27T11:17:17.936Z,101895.24
2023-04-27T11:19:48.658Z,101894.10
2023-04-27T11:22:19.292Z,101892.23
2023-04-27T11:24:49.656Z,101892.90
2023-04-27T11:27:19.840Z,101892.42
2023-04-27T11:29:50.387Z,101893.08
2023-04-27T11:32:20.923Z,101896.74
2023-04-27T11:34:53.383Z,101896.63
2023-04-27T11:37:21.922Z,101893.78
2023-04-27T11:39:52.014Z,101892.42
2023-04-27T11:42:22.472Z,101893.56
2023-04-27T11:44:52.918Z,101894.15
2023-04-27T11:47:23.419Z,101896.42
2023-04-27T11:49:53.925Z,101894.91
2023-04-27T11:52:24.292Z,101889.98
2023-04-27T11:54:54.713Z,101890.70
2023-04-27T11:57:25.194Z,101890.12
2023-04-27T11:59:55.241Z,101893.14
2023-04-27T12:02:25.815Z,101894.40
2023-04-27T12:04:56.619Z,101897.48
2023-04-27T12:07:26.578Z,101899.55
2023-04-27T12:09:57.948Z,101890.32
2023-04-27T12:12:26.893Z,101895.36
2023-04-27T12:14:57.329Z,101898.58
2023-04-27T12:17:27.877Z,101896.72
2023-04-27T12:19:57.905Z,101893.91
2023-04-27T12:22:28.374Z,101895.35
2023-04-27T12:24:58.880Z,101892.44
2023-04-27T12:27:29.284Z,101891.19
2023-04-27T12:29:59.605Z,101889.43
2023-04-27T12:32:29.989Z,101886.67
2023-04-27T12:35:00.421Z,101884.74
2023-04-27T12:37:32.230Z,101886.36
2023-04-27T12:40:00.827Z,101879.51
2023-04-27T12:42:30.872Z,101876.98
2023-04-27T12:45:01.379Z,101880.13
2023-04-27T12:50:01.909Z,101883.77
2023-04-27T12:52:32.354Z,101884.59
2023-04-27T12:55:02.783Z,101884.05
2023-04-27T12:57:33.227Z,101881.64
2023-04-27T13:00:03.765Z,101883.56
2023-04-27T13:02:34.413Z,101879.16
2023-04-27T13:05:05.246Z,101879.61
2023-04-27T13:07:35.286Z,101877.48
2023-04-27T13:10:06.018Z,101875.15
2023-04-27T13:12:36.284Z,101870.13
2023-04-27T13:15:06.524Z,101874.36
2023-04-27T13:17:36.728Z,101877.06
2023-04-27T13:20:07.086Z,101876.79
2023-04-27T13:22:37.535Z,101873.59
2023-04-27T13:25:07.988Z,101869.53
2023-04-27T13:27:38.565Z,101869.74
2023-04-27T13:30:09.104Z,101863.46
2023-04-27T13:32:39.363Z,101860.03
2023-04-27T13:35:09.385Z,101859.64
2023-04-27T13:37:39.487Z,101854.35
2023-04-27T13:40:09.711Z,101850.69
2023-04-27T13:42:40.394Z,101847.42
2023-04-27T13:45:11.021Z,101847.63
2023-04-27T13:47:41.371Z,101846.31
2023-04-27T13:50:11.917Z,101838.47
2023-04-27T13:52:42.693Z,101838.62
2023-04-27T13:55:12.828Z,101833.73
2023-04-27T13:57:43.137Z,101830.96
2023-04-27T14:00:13.509Z,101831.09
2023-04-27T14:02:44.095Z,101830.61
2023-04-27T14:05:14.200Z,101829.56
2023-04-27T14:07:44.380Z,101832.72
2023-04-27T14:10:14.375Z,101829.69
2023-04-27T14:12:44.588Z,101828.90
2023-04-27T14:15:15.017Z,101823.98
2023-04-27T14:17:45.273Z,101825.91
2023-04-27T14:20:15.571Z,101818.56
2023-04-27T14:22:45.710Z,101812.92
2023-04-27T14:25:15.768Z,101811.10
2023-04-27T14:27:46.233Z,101808.42
2023-04-27T14:30:16.609Z,101805.23
2023-04-27T14:32:46.797Z,101802.01
2023-04-27T14:35:17.142Z,101801.04
2023-04-27T14:37:47.576Z,101798.11
2023-04-27T14:40:18.050Z,101797.16
2023-04-27T14:42:48.428Z,101801.18
2023-04-27T14:45:18.917Z,101806.19
2023-04-27T14:47:49.110Z,101806.64
2023-04-27T14:50:19.489Z,101804.83
2023-04-27T14:52:50.022Z,101806.35
2023-04-27T14:55:20.130Z,101803.21
2023-04-27T14:57:50.630Z,101800.97
2023-04-27T15:00:21.019Z,101802.57
2023-04-27T15:02:51.642Z,101800.63
2023-04-27T15:05:21.667Z,101804.94
2023-04-27T15:07:52.249Z,101803.41
2023-04-27T15:10:22.753Z,101801.96
2023-04-27T15:12:53.202Z,101804.75
2023-04-27T15:15:23.826Z,101799.60
2023-04-27T15:17:54.531Z,101791.98
2023-04-27T15:20:25.299Z,101790.49
2023-04-27T15:22:55.523Z,101795.85
2023-04-27T15:25:26.047Z,101794.61
2023-04-27T15:27:56.150Z,101791.63
2023-04-27T15:30:26.590Z,101792.43
2023-04-27T15:32:57.232Z,101789.20
2023-04-27T15:35:27.516Z,101789.40
2023-04-27T15:37:57.963Z,101790.23
2023-04-27T15:40:28.409Z,101791.38
2023-04-27T15:42:59.034Z,101790.23
2023-04-27T15:45:29.314Z,101790.05
2023-04-27T15:47:59.925Z,101785.97
2023-04-27T15:50:30.216Z,101779.32
2023-04-27T15:53:00.670Z,101773.11
2023-04-27T15:55:31.104Z,101766.35
2023-04-27T15:58:01.603Z,101763.93
2023-04-27T16:00:31.750Z,101762.18
2023-04-27T16:03:02.413Z,101760.11
2023-04-27T16:05:32.526Z,101759.20
2023-04-27T16:08:02.967Z,101757.58
2023-04-27T16:10:33.390Z,101752.85
2023-04-27T16:13:03.843Z,101751.50
2023-04-27T16:15:34.267Z,101751.60
2023-04-27T16:18:04.767Z,101750.44
2023-04-27T16:20:36.522Z,101749.14
2023-04-27T16:23:05.367Z,101744.60
2023-04-27T16:25:36.045Z,101742.47
2023-04-27T16:28:06.239Z,101735.41
2023-04-27T16:30:36.679Z,101733.59
2023-04-27T16:33:07.179Z,101729.67
2023-04-27T16:35:37.297Z,101726.94
2023-04-27T16:38:07.396Z,101723.40
2023-04-27T16:40:37.941Z,101722.17
2023-04-27T16:43:08.283Z,101721.38
2023-04-27T16:45:38.843Z,101717.85
2023-04-27T16:48:09.294Z,101711.52
2023-04-27T16:50:39.436Z,101707.03
2023-04-27T16:53:09.904Z,101705.62
2023-04-27T16:55:40.394Z,101704.11
2023-04-27T16:58:10.840Z,101701.89
2023-04-27T17:00:41.220Z,101697.24
2023-04-27T17:03:11.859Z,101692.17
2023-04-27T17:05:42.225Z,101693.24
2023-04-27T17:08:12.331Z,101694.67
2023-04-27T17:10:42.778Z,101697.83
2023-04-27T17:13:13.502Z,101694.75
2023-04-27T17:15:43.957Z,101697.83
2023-04-27T17:18:14.453Z,101701.46
2023-04-27T17:20:44.872Z,101702.49
2023-04-27T17:23:15.405Z,101704.63
2023-04-27T17:25:45.736Z,101710.06
2023-04-27T17:28:16.215Z,101710.24
2023-04-27T17:30:46.686Z,101708.15
2023-04-27T17:33:17.142Z,101700.25
2023-04-27T17:35:47.587Z,101703.17
2023-04-27T17:38:18.063Z,101702.77
2023-04-27T17:40:48.522Z,101702.54
2023-04-27T17:43:19.003Z,101700.94
2023-04-27T17:45:49.477Z,101704.62
2023-04-27T17:48:19.797Z,101702.65
2023-04-27T17:50:50.116Z,101698.16
2023-04-27T17:53:20.634Z,101695.48
2023-04-27T17:55:51.064Z,101694.31
2023-04-27T17:58:21.554Z,101684.23
2023-04-27T18:00:52.035Z,101672.11
2023-04-27T18:03:22.457Z,101663.98
2023-04-27T18:05:52.680Z,101663.41
2023-04-27T18:08:23.178Z,101664.15
2023-04-27T18:10:53.300Z,101668.35
2023-04-27T18:13:23.857Z,101668.01
2023-04-27T18:15:54.409Z,101665.81
2023-04-27T18:18:25.594Z,101660.21
2023-04-27T18:20:55.462Z,101658.50
2023-04-27T18:23:25.938Z,101660.10
2023-04-27T18:25:56.197Z,101657.77
2023-04-27T18:28:26.499Z,101657.08
2023-04-27T18:30:57.120Z,101654.98
2023-04-27T18:33:27.388Z,101656.74
2023-04-27T18:35:57.987Z,101657.78
2023-04-27T18:38:28.457Z,101661.26
2023-04-27T18:40:58.766Z,101659.89
2023-04-27T18:43:29.359Z,101667.63
2023-04-27T18:45:59.782Z,101669.56
2023-04-27T18:48:30.103Z,101670.48
2023-04-27T18:51:00.342Z,101669.61
2023-04-27T18:53:30.789Z,101668.95
2023-04-27T18:56:01.373Z,101669.34
2023-04-27T18:58:32.157Z,101669.15
2023-04-27T19:01:02.462Z,101667.45
2023-04-27T19:03:33.043Z,101666.15
2023-04-27T19:06:03.358Z,101668.76
2023-04-27T19:08:33.769Z,101671.24
2023-04-27T19:11:03.803Z,101673.43
2023-04-27T19:13:34.894Z,101675.37
2023-04-27T19:16:05.604Z,101681.57
2023-04-27T19:18:36.150Z,101682.72
2023-04-27T19:21:06.968Z,101680.88
2023-04-27T19:23:36.874Z,101677.73
2023-04-27T19:26:13.208Z,101676.55
2023-04-27T19:28:37.491Z,101674.07
2023-04-27T19:31:08.271Z,101673.26
2023-04-27T19:36:09.300Z,101665.94
2023-04-27T19:38:39.806Z,101667.63
2023-04-27T19:41:10.184Z,101669.17
2023-04-27T19:43:40.760Z,101672.19
2023-04-27T19:46:11.283Z,101673.95
2023-04-27T19:48:42.498Z,101671.51
2023-04-27T19:51:12.044Z,101666.11
2023-04-27T19:53:42.375Z,101666.48
2023-04-27T19:56:12.870Z,101667.84
2023-04-27T19:58:43.531Z,101658.79
2023-04-27T20:01:14.112Z,101655.98
2023-04-27T20:03:44.929Z,101655.09
2023-04-27T20:06:14.901Z,101649.09
2023-04-27T20:08:45.354Z,101645.74
2023-04-27T20:11:16.028Z,101641.69
2023-04-27T20:13:47.036Z,101644.14
2023-04-27T20:16:16.947Z,101646.08
2023-04-27T20:18:47.259Z,101647.10
2023-04-27T20:21:17.807Z,101645.04
2023-04-27T20:23:48.376Z,101640.15
2023-04-27T20:26:18.941Z,101639.52
2023-04-27T20:28:49.736Z,101638.57
2023-04-27T20:31:20.367Z,101644.02
2023-04-27T20:33:50.633Z,101643.85
2023-04-27T20:36:20.967Z,101639.71
2023-04-27T20:38:51.710Z,101633.27
2023-04-27T20:41:22.112Z,101630.33
2023-04-27T20:43:52.618Z,101630.04
2023-04-27T20:46:23.116Z,101629.69
2023-04-27T20:48:53.466Z,101628.51
2023-04-27T20:51:24.319Z,101617.17
2023-04-27T20:53:54.562Z,101613.60
2023-04-27T20:56:25.000Z,101611.69
2023-04-27T20:58:55.749Z,101611.81
2023-04-27T21:01:26.386Z,101607.07
2023-04-27T21:03:56.967Z,101603.60
2023-04-27T21:06:27.470Z,101605.79
2023-04-27T21:08:57.792Z,101607.46
2023-04-27T21:11:28.029Z,101609.55
2023-04-27T21:13:58.078Z,101614.42
2023-04-27T21:16:28.723Z,101612.30
2023-04-27T21:18:59.292Z,101612.29
2023-04-27T21:21:29.528Z,101608.30
2023-04-27T21:24:07.816Z,101604.67
2023-04-27T21:26:31.099Z,101598.29
2023-04-27T21:29:01.153Z,101591.65
2023-04-27T21:31:31.427Z,101589.19
2023-04-27T21:34:01.479Z,101588.74
2023-04-27T21:36:32.164Z,101589.44
2023-04-27T21:39:02.664Z,101589.19
2023-04-27T21:41:33.358Z,101587.35
2023-04-27T21:44:04.099Z,101587.88
2023-04-27T21:46:34.732Z,101581.27
2023-04-27T21:49:04.759Z,101574.86
2023-04-27T21:51:35.298Z,101571.45
2023-04-27T21:54:05.934Z,101568.44
2023-04-27T21:56:36.069Z,101562.56
2023-04-27T21:59:06.680Z,101560.00
2023-04-27T22:01:37.130Z,101559.94
2023-04-27T22:04:07.986Z,101556.42
2023-04-27T22:06:38.186Z,101554.49
2023-04-27T22:09:08.681Z,101553.42
2023-04-27T22:11:38.848Z,101553.18
2023-04-27T22:14:09.530Z,101554.44
2023-04-27T22:16:40.163Z,101552.66
2023-04-27T22:19:10.133Z,101553.17
2023-04-27T22:21:40.471Z,101550.88
2023-04-27T22:24:11.114Z,101545.86
2023-04-27T22:26:41.739Z,101538.41
2023-04-27T22:29:12.390Z,101534.72
2023-04-27T22:31:42.715Z,101530.23
2023-04-27T22:34:13.301Z,101527.24
2023-04-27T22:36:43.758Z,101522.22
2023-04-27T22:39:13.727Z,101518.47
2023-04-27T22:41:44.078Z,101517.03
2023-04-27T22:44:14.972Z,101515.39
2023-04-27T22:46:45.610Z,101514.68
2023-04-27T22:49:15.744Z,101513.01
2023-04-27T22:51:46.342Z,101509.09
2023-04-27T22:54:16.907Z,101507.63
2023-04-27T22:56:47.027Z,101511.82
2023-04-27T22:59:17.404Z,101510.77
2023-04-27T23:01:47.514Z,101501.12
2023-04-27T23:04:18.175Z,101492.76
2023-04-27T23:06:48.412Z,101493.16
2023-04-27T23:09:18.438Z,101491.44
2023-04-27T23:11:49.095Z,101497.31
2023-04-27T23:14:19.543Z,101494.22
2023-04-27T23:16:49.807Z,101486.31
2023-04-27T23:19:20.284Z,101485.59
2023-04-27T23:21:50.844Z,101482.49
2023-04-27T23:24:21.291Z,101478.60
2023-04-27T23:26:51.810Z,101481.24
2023-04-27T23:29:21.967Z,101480.10
2023-04-27T23:31:52.354Z,101478.93
2023-04-27T23:34:22.959Z,101473.76
2023-04-27T23:36:52.956Z,101468.03
2023-04-27T23:39:23.359Z,101465.67
2023-04-27T23:41:53.549Z,101462.04
2023-04-27T23:44:23.847Z,101459.71
2023-04-27T23:46:54.507Z,101458.82
2023-04-27T23:49:24.867Z,101457.08
2023-04-27T23:51:54.855Z,101449.94
2023-04-27T23:54:24.923Z,101443.96
2023-04-27T23:56:55.307Z,101440.54
2023-04-27T23:59:25.348Z,101435.34
